sensor_id;sensor_type;location;lat;lon;timestamp;P1;durP1;ratioP1;P2;durP2;ratioP2
71383;SDS011;67558;52.166;5.004;2023-11-19T00:00:49;130.30;;;124.97;;
71383;SDS011;67558;52.166;5.004;2023-11-19T00:03:16;115.32;;;112.00;;
71383;SDS011;67558;52.166;5.004;2023-11-19T00:05:41;120.05;;;115.60;;
71383;SDS011;67558;52.166;5.004;2023-11-19T00:08:06;124.80;;;120.78;;
71383;SDS011;67558;52.166;5.004;2023-11-19T00:10:33;125.93;;;122.18;;
71383;SDS011;67558;52.166;5.004;2023-11-19T00:12:59;132.32;;;128.32;;
71383;SDS011;67558;52.166;5.004;2023-11-19T00:15:24;135.15;;;131.10;;
71383;SDS011;67558;52.166;5.004;2023-11-19T00:17:50;116.50;;;112.38;;
71383;SDS011;67558;52.166;5.004;2023-11-19T00:20:16;122.00;;;117.80;;
71383;SDS011;67558;52.166;5.004;2023-11-19T00:22:46;87.28;;;83.93;;
71383;SDS011;67558;52.166;5.004;2023-11-19T00:25:16;126.72;;;123.03;;
71383;SDS011;67558;52.166;5.004;2023-11-19T00:27:42;91.70;;;88.20;;
71383;SDS011;67558;52.166;5.004;2023-11-19T00:30:09;125.50;;;121.32;;
71383;SDS011;67558;52.166;5.004;2023-11-19T00:32:35;126.00;;;121.65;;
71383;SDS011;67558;52.166;5.004;2023-11-19T00:35:03;136.05;;;131.82;;
71383;SDS011;67558;52.166;5.004;2023-11-19T00:37:29;134.15;;;130.18;;
71383;SDS011;67558;52.166;5.004;2023-11-19T00:39:54;135.10;;;130.55;;
71383;SDS011;67558;52.166;5.004;2023-11-19T00:42:21;132.57;;;128.38;;
71383;SDS011;67558;52.166;5.004;2023-11-19T00:44:47;131.50;;;127.68;;
71383;SDS011;67558;52.166;5.004;2023-11-19T00:47:12;92.68;;;89.18;;
71383;SDS011;67558;52.166;5.004;2023-11-19T00:49:38;137.25;;;132.32;;
71383;SDS011;67558;52.166;5.004;2023-11-19T00:52:03;127.63;;;123.90;;
71383;SDS011;67558;52.166;5.004;2023-11-19T00:54:28;128.25;;;123.75;;
71383;SDS011;67558;52.166;5.004;2023-11-19T00:56:54;132.02;;;127.57;;
71383;SDS011;67558;52.166;5.004;2023-11-19T00:59:20;127.63;;;123.28;;
71383;SDS011;67558;52.166;5.004;2023-11-19T01:01:45;130.32;;;125.97;;
71383;SDS011;67558;52.166;5.004;2023-11-19T01:04:13;133.48;;;129.05;;
71383;SDS011;67558;52.166;5.004;2023-11-19T01:06:39;123.65;;;119.65;;
71383;SDS011;67558;52.166;5.004;2023-11-19T01:09:05;130.38;;;125.53;;
71383;SDS011;67558;52.166;5.004;2023-11-19T01:11:30;127.07;;;122.93;;
71383;SDS011;67558;52.166;5.004;2023-11-19T01:13:56;140.60;;;136.52;;
71383;SDS011;67558;52.166;5.004;2023-11-19T01:16:21;125.78;;;121.78;;
71383;SDS011;67558;52.166;5.004;2023-11-19T01:18:47;130.20;;;125.63;;
71383;SDS011;67558;52.166;5.004;2023-11-19T01:21:13;136.27;;;131.60;;
71383;SDS011;67558;52.166;5.004;2023-11-19T01:23:39;133.98;;;129.52;;
71383;SDS011;67558;52.166;5.004;2023-11-19T01:26:05;132.13;;;127.25;;
71383;SDS011;67558;52.166;5.004;2023-11-19T01:28:30;139.10;;;134.10;;
71383;SDS011;67558;52.166;5.004;2023-11-19T01:30:56;117.60;;;113.15;;
71383;SDS011;67558;52.166;5.004;2023-11-19T01:33:21;124.78;;;120.03;;
71383;SDS011;67558;52.166;5.004;2023-11-19T01:35:47;134.43;;;129.75;;
71383;SDS011;67558;52.166;5.004;2023-11-19T01:38:12;118.85;;;114.20;;
71383;SDS011;67558;52.166;5.004;2023-11-19T01:40:37;138.80;;;132.68;;
71383;SDS011;67558;52.166;5.004;2023-11-19T01:43:03;85.80;;;82.35;;
71383;SDS011;67558;52.166;5.004;2023-11-19T01:45:29;130.75;;;126.53;;
71383;SDS011;67558;52.166;5.004;2023-11-19T01:47:56;129.23;;;124.68;;
71383;SDS011;67558;52.166;5.004;2023-11-19T01:50:22;125.35;;;121.18;;
71383;SDS011;67558;52.166;5.004;2023-11-19T01:52:49;144.05;;;138.95;;
71383;SDS011;67558;52.166;5.004;2023-11-19T01:55:17;131.43;;;126.95;;
71383;SDS011;67558;52.166;5.004;2023-11-19T01:57:44;130.93;;;125.45;;
71383;SDS011;67558;52.166;5.004;2023-11-19T02:00:11;136.70;;;131.85;;
71383;SDS011;67558;52.166;5.004;2023-11-19T02:02:37;126.80;;;122.68;;
71383;SDS011;67558;52.166;5.004;2023-11-19T02:05:04;126.43;;;121.05;;
71383;SDS011;67558;52.166;5.004;2023-11-19T02:07:30;121.70;;;117.47;;
71383;SDS011;67558;52.166;5.004;2023-11-19T02:09:57;96.50;;;92.93;;
71383;SDS011;67558;52.166;5.004;2023-11-19T02:12:25;135.85;;;131.10;;
71383;SDS011;67558;52.166;5.004;2023-11-19T02:14:53;135.80;;;130.70;;
71383;SDS011;67558;52.166;5.004;2023-11-19T02:17:52;135.77;;;131.30;;
71383;SDS011;67558;52.166;5.004;2023-11-19T02:20:10;133.13;;;127.57;;
71383;SDS011;67558;52.166;5.004;2023-11-19T02:22:39;134.93;;;130.38;;
71383;SDS011;67558;52.166;5.004;2023-11-19T02:25:07;121.90;;;118.32;;
71383;SDS011;67558;52.166;5.004;2023-11-19T02:30:20;82.40;;;79.50;;
71383;SDS011;67558;52.166;5.004;2023-11-19T02:32:46;130.50;;;125.45;;
71383;SDS011;67558;52.166;5.004;2023-11-19T02:35:13;135.32;;;130.27;;
71383;SDS011;67558;52.166;5.004;2023-11-19T02:37:38;133.75;;;129.20;;
71383;SDS011;67558;52.166;5.004;2023-11-19T02:40:04;132.80;;;128.35;;
71383;SDS011;67558;52.166;5.004;2023-11-19T02:42:30;119.63;;;115.10;;
71383;SDS011;67558;52.166;5.004;2023-11-19T02:44:56;123.40;;;118.90;;
71383;SDS011;67558;52.166;5.004;2023-11-19T02:47:21;123.88;;;119.47;;
71383;SDS011;67558;52.166;5.004;2023-11-19T02:49:48;116.80;;;112.50;;
71383;SDS011;67558;52.166;5.004;2023-11-19T02:52:14;118.18;;;113.85;;
71383;SDS011;67558;52.166;5.004;2023-11-19T02:54:40;120.95;;;116.20;;
71383;SDS011;67558;52.166;5.004;2023-11-19T02:57:06;116.53;;;112.10;;
71383;SDS011;67558;52.166;5.004;2023-11-19T02:59:35;117.93;;;113.53;;
71383;SDS011;67558;52.166;5.004;2023-11-19T03:02:04;118.45;;;114.20;;
71383;SDS011;67558;52.166;5.004;2023-11-19T03:04:36;108.53;;;104.82;;
71383;SDS011;67558;52.166;5.004;2023-11-19T03:07:03;112.68;;;108.15;;
71383;SDS011;67558;52.166;5.004;2023-11-19T03:09:28;115.85;;;111.03;;
71383;SDS011;67558;52.166;5.004;2023-11-19T03:11:54;119.38;;;115.03;;
71383;SDS011;67558;52.166;5.004;2023-11-19T03:14:20;123.43;;;118.68;;
71383;SDS011;67558;52.166;5.004;2023-11-19T03:16:45;143.07;;;138.07;;
71383;SDS011;67558;52.166;5.004;2023-11-19T03:19:11;120.47;;;115.80;;
71383;SDS011;67558;52.166;5.004;2023-11-19T03:21:37;94.45;;;90.20;;
71383;SDS011;67558;52.166;5.004;2023-11-19T03:24:02;119.57;;;115.63;;
71383;SDS011;67558;52.166;5.004;2023-11-19T03:26:28;114.57;;;110.10;;
71383;SDS011;67558;52.166;5.004;2023-11-19T03:28:54;127.82;;;124.05;;
71383;SDS011;67558;52.166;5.004;2023-11-19T03:31:19;115.47;;;111.38;;
71383;SDS011;67558;52.166;5.004;2023-11-19T03:33:45;113.32;;;108.82;;
71383;SDS011;67558;52.166;5.004;2023-11-19T03:36:11;116.80;;;111.97;;
71383;SDS011;67558;52.166;5.004;2023-11-19T03:38:37;117.93;;;112.65;;
71383;SDS011;67558;52.166;5.004;2023-11-19T03:41:12;130.65;;;126.43;;
71383;SDS011;67558;52.166;5.004;2023-11-19T03:43:39;113.22;;;108.55;;
71383;SDS011;67558;52.166;5.004;2023-11-19T03:46:05;113.45;;;109.07;;
71383;SDS011;67558;52.166;5.004;2023-11-19T03:48:40;107.38;;;103.78;;
71383;SDS011;67558;52.166;5.004;2023-11-19T03:51:05;112.13;;;107.60;;
71383;SDS011;67558;52.166;5.004;2023-11-19T03:53:30;105.03;;;100.80;;
71383;SDS011;67558;52.166;5.004;2023-11-19T03:55:56;107.25;;;102.72;;
71383;SDS011;67558;52.166;5.004;2023-11-19T03:58:21;112.95;;;107.60;;
71383;SDS011;67558;52.166;5.004;2023-11-19T04:00:46;113.65;;;109.47;;
71383;SDS011;67558;52.166;5.004;2023-11-19T04:03:12;117.88;;;113.22;;
71383;SDS011;67558;52.166;5.004;2023-11-19T04:05:37;112.85;;;108.28;;
71383;SDS011;67558;52.166;5.004;2023-11-19T04:08:03;108.88;;;105.15;;
71383;SDS011;67558;52.166;5.004;2023-11-19T04:10:28;127.65;;;122.32;;
71383;SDS011;67558;52.166;5.004;2023-11-19T04:12:54;119.18;;;114.82;;
71383;SDS011;67558;52.166;5.004;2023-11-19T04:15:19;119.40;;;115.28;;
71383;SDS011;67558;52.166;5.004;2023-11-19T04:17:44;114.32;;;109.82;;
71383;SDS011;67558;52.166;5.004;2023-11-19T04:20:10;110.10;;;105.82;;
71383;SDS011;67558;52.166;5.004;2023-11-19T04:22:38;114.47;;;110.38;;
71383;SDS011;67558;52.166;5.004;2023-11-19T04:25:03;127.70;;;122.80;;
71383;SDS011;67558;52.166;5.004;2023-11-19T04:27:29;126.72;;;122.22;;
71383;SDS011;67558;52.166;5.004;2023-11-19T04:29:55;134.40;;;129.77;;
71383;SDS011;67558;52.166;5.004;2023-11-19T04:32:20;142.15;;;136.48;;
71383;SDS011;67558;52.166;5.004;2023-11-19T04:34:46;124.57;;;120.40;;
71383;SDS011;67558;52.166;5.004;2023-11-19T04:37:11;125.28;;;120.65;;
71383;SDS011;67558;52.166;5.004;2023-11-19T04:39:36;116.07;;;111.93;;
71383;SDS011;67558;52.166;5.004;2023-11-19T04:42:02;121.78;;;117.90;;
71383;SDS011;67558;52.166;5.004;2023-11-19T04:44:29;113.68;;;108.38;;
71383;SDS011;67558;52.166;5.004;2023-11-19T04:46:55;126.15;;;121.13;;
71383;SDS011;67558;52.166;5.004;2023-11-19T04:49:20;118.03;;;113.88;;
71383;SDS011;67558;52.166;5.004;2023-11-19T04:51:45;112.85;;;108.00;;
71383;SDS011;67558;52.166;5.004;2023-11-19T04:54:13;111.97;;;107.90;;
71383;SDS011;67558;52.166;5.004;2023-11-19T04:56:40;102.03;;;97.32;;
71383;SDS011;67558;52.166;5.004;2023-11-19T04:59:05;118.32;;;114.55;;
71383;SDS011;67558;52.166;5.004;2023-11-19T05:01:32;89.28;;;85.78;;
71383;SDS011;67558;52.166;5.004;2023-11-19T05:03:58;84.50;;;81.38;;
71383;SDS011;67558;52.166;5.004;2023-11-19T05:06:30;119.30;;;114.88;;
71383;SDS011;67558;52.166;5.004;2023-11-19T05:08:56;119.65;;;115.32;;
71383;SDS011;67558;52.166;5.004;2023-11-19T05:11:23;118.00;;;114.32;;
71383;SDS011;67558;52.166;5.004;2023-11-19T05:13:49;115.05;;;110.88;;
71383;SDS011;67558;52.166;5.004;2023-11-19T05:16:15;123.65;;;119.30;;
71383;SDS011;67558;52.166;5.004;2023-11-19T05:18:41;129.43;;;125.30;;
71383;SDS011;67558;52.166;5.004;2023-11-19T05:21:07;139.95;;;133.80;;
71383;SDS011;67558;52.166;5.004;2023-11-19T05:23:32;121.82;;;117.03;;
71383;SDS011;67558;52.166;5.004;2023-11-19T05:26:01;129.63;;;124.20;;
71383;SDS011;67558;52.166;5.004;2023-11-19T05:28:27;131.23;;;126.50;;
71383;SDS011;67558;52.166;5.004;2023-11-19T05:30:52;128.77;;;123.70;;
71383;SDS011;67558;52.166;5.004;2023-11-19T05:33:17;134.60;;;130.10;;
71383;SDS011;67558;52.166;5.004;2023-11-19T05:35:42;110.30;;;105.57;;
71383;SDS011;67558;52.166;5.004;2023-11-19T05:38:08;101.68;;;98.43;;
71383;SDS011;67558;52.166;5.004;2023-11-19T05:40:34;72.78;;;69.72;;
71383;SDS011;67558;52.166;5.004;2023-11-19T05:42:59;102.82;;;98.95;;
71383;SDS011;67558;52.166;5.004;2023-11-19T05:45:25;102.93;;;99.13;;
71383;SDS011;67558;52.166;5.004;2023-11-19T05:47:51;109.50;;;105.57;;
71383;SDS011;67558;52.166;5.004;2023-11-19T05:50:17;79.68;;;76.55;;
71383;SDS011;67558;52.166;5.004;2023-11-19T05:52:42;102.40;;;97.82;;
71383;SDS011;67558;52.166;5.004;2023-11-19T05:55:08;64.53;;;60.85;;
71383;SDS011;67558;52.166;5.004;2023-11-19T05:57:37;95.63;;;92.63;;
71383;SDS011;67558;52.166;5.004;2023-11-19T06:00:02;96.95;;;93.60;;
71383;SDS011;67558;52.166;5.004;2023-11-19T06:02:32;85.78;;;82.18;;
71383;SDS011;67558;52.166;5.004;2023-11-19T06:04:57;89.05;;;85.55;;
71383;SDS011;67558;52.166;5.004;2023-11-19T06:07:23;95.45;;;91.30;;
71383;SDS011;67558;52.166;5.004;2023-11-19T06:09:48;100.28;;;96.28;;
71383;SDS011;67558;52.166;5.004;2023-11-19T06:12:13;97.60;;;93.43;;
71383;SDS011;67558;52.166;5.004;2023-11-19T06:14:39;98.00;;;94.18;;
71383;SDS011;67558;52.166;5.004;2023-11-19T06:17:05;100.10;;;96.20;;
71383;SDS011;67558;52.166;5.004;2023-11-19T06:19:30;95.10;;;92.00;;
71383;SDS011;67558;52.166;5.004;2023-11-19T06:21:56;100.07;;;96.53;;
71383;SDS011;67558;52.166;5.004;2023-11-19T06:24:21;106.68;;;102.53;;
71383;SDS011;67558;52.166;5.004;2023-11-19T06:26:47;66.80;;;64.18;;
71383;SDS011;67558;52.166;5.004;2023-11-19T06:29:12;107.43;;;102.85;;
71383;SDS011;67558;52.166;5.004;2023-11-19T06:31:43;102.20;;;98.13;;
71383;SDS011;67558;52.166;5.004;2023-11-19T06:34:08;99.65;;;96.10;;
71383;SDS011;67558;52.166;5.004;2023-11-19T06:36:34;103.85;;;100.00;;
71383;SDS011;67558;52.166;5.004;2023-11-19T06:39:00;98.75;;;95.00;;
71383;SDS011;67558;52.166;5.004;2023-11-19T06:41:27;98.97;;;94.82;;
71383;SDS011;67558;52.166;5.004;2023-11-19T06:43:54;111.05;;;106.82;;
71383;SDS011;67558;52.166;5.004;2023-11-19T06:46:19;110.85;;;106.60;;
71383;SDS011;67558;52.166;5.004;2023-11-19T06:48:45;105.53;;;101.53;;
71383;SDS011;67558;52.166;5.004;2023-11-19T06:51:11;108.40;;;104.05;;
71383;SDS011;67558;52.166;5.004;2023-11-19T06:53:36;105.63;;;101.90;;
71383;SDS011;67558;52.166;5.004;2023-11-19T06:56:02;115.65;;;111.05;;
71383;SDS011;67558;52.166;5.004;2023-11-19T06:58:31;106.57;;;102.00;;
71383;SDS011;67558;52.166;5.004;2023-11-19T07:00:57;106.25;;;102.07;;
71383;SDS011;67558;52.166;5.004;2023-11-19T07:03:22;113.90;;;109.78;;
71383;SDS011;67558;52.166;5.004;2023-11-19T07:05:48;81.93;;;77.75;;
71383;SDS011;67558;52.166;5.004;2023-11-19T07:08:13;114.95;;;110.22;;
71383;SDS011;67558;52.166;5.004;2023-11-19T07:10:39;128.85;;;124.32;;
71383;SDS011;67558;52.166;5.004;2023-11-19T07:13:04;126.68;;;122.65;;
71383;SDS011;67558;52.166;5.004;2023-11-19T07:15:30;127.82;;;123.60;;
71383;SDS011;67558;52.166;5.004;2023-11-19T07:17:57;127.22;;;122.25;;
71383;SDS011;67558;52.166;5.004;2023-11-19T07:20:24;120.22;;;115.95;;
71383;SDS011;67558;52.166;5.004;2023-11-19T07:22:49;131.30;;;127.70;;
71383;SDS011;67558;52.166;5.004;2023-11-19T07:25:14;127.93;;;123.90;;
71383;SDS011;67558;52.166;5.004;2023-11-19T07:27:40;114.82;;;110.97;;
71383;SDS011;67558;52.166;5.004;2023-11-19T07:30:06;119.88;;;116.10;;
71383;SDS011;67558;52.166;5.004;2023-11-19T07:32:32;126.47;;;122.05;;
71383;SDS011;67558;52.166;5.004;2023-11-19T07:34:58;108.97;;;106.10;;
71383;SDS011;67558;52.166;5.004;2023-11-19T07:37:23;109.07;;;105.35;;
71383;SDS011;67558;52.166;5.004;2023-11-19T07:39:49;106.47;;;102.90;;
71383;SDS011;67558;52.166;5.004;2023-11-19T07:42:14;105.72;;;102.15;;
71383;SDS011;67558;52.166;5.004;2023-11-19T07:44:40;105.28;;;101.47;;
71383;SDS011;67558;52.166;5.004;2023-11-19T07:47:06;102.50;;;99.30;;
71383;SDS011;67558;52.166;5.004;2023-11-19T07:49:32;97.45;;;93.40;;
71383;SDS011;67558;52.166;5.004;2023-11-19T07:51:57;118.28;;;114.30;;
71383;SDS011;67558;52.166;5.004;2023-11-19T07:54:23;116.82;;;112.43;;
71383;SDS011;67558;52.166;5.004;2023-11-19T07:56:49;118.97;;;115.35;;
71383;SDS011;67558;52.166;5.004;2023-11-19T07:59:15;103.78;;;99.70;;
71383;SDS011;67558;52.166;5.004;2023-11-19T08:01:41;118.07;;;113.30;;
71383;SDS011;67558;52.166;5.004;2023-11-19T08:04:06;133.60;;;128.68;;
71383;SDS011;67558;52.166;5.004;2023-11-19T08:06:31;132.40;;;127.40;;
71383;SDS011;67558;52.166;5.004;2023-11-19T08:08:57;123.80;;;119.00;;
71383;SDS011;67558;52.166;5.004;2023-11-19T08:11:22;123.85;;;118.43;;
71383;SDS011;67558;52.166;5.004;2023-11-19T08:13:47;116.22;;;111.63;;
71383;SDS011;67558;52.166;5.004;2023-11-19T08:16:13;115.70;;;110.50;;
71383;SDS011;67558;52.166;5.004;2023-11-19T08:18:41;111.93;;;106.68;;
71383;SDS011;67558;52.166;5.004;2023-11-19T08:21:09;113.05;;;108.28;;
71383;SDS011;67558;52.166;5.004;2023-11-19T08:23:35;112.50;;;107.43;;
71383;SDS011;67558;52.166;5.004;2023-11-19T08:26:01;78.00;;;74.05;;
71383;SDS011;67558;52.166;5.004;2023-11-19T08:28:26;107.63;;;103.55;;
71383;SDS011;67558;52.166;5.004;2023-11-19T08:30:52;112.10;;;106.97;;
71383;SDS011;67558;52.166;5.004;2023-11-19T08:33:18;113.72;;;109.25;;
71383;SDS011;67558;52.166;5.004;2023-11-19T08:35:43;110.25;;;105.28;;
71383;SDS011;67558;52.166;5.004;2023-11-19T08:38:08;116.35;;;112.00;;
71383;SDS011;67558;52.166;5.004;2023-11-19T08:40:34;126.28;;;121.78;;
71383;SDS011;67558;52.166;5.004;2023-11-19T08:42:59;116.72;;;112.18;;
71383;SDS011;67558;52.166;5.004;2023-11-19T08:45:24;116.45;;;111.57;;
71383;SDS011;67558;52.166;5.004;2023-11-19T08:47:50;120.50;;;116.25;;
71383;SDS011;67558;52.166;5.004;2023-11-19T08:50:15;119.88;;;115.00;;
71383;SDS011;67558;52.166;5.004;2023-11-19T08:52:41;125.40;;;120.13;;
71383;SDS011;67558;52.166;5.004;2023-11-19T08:55:06;119.95;;;114.43;;
71383;SDS011;67558;52.166;5.004;2023-11-19T08:57:32;127.68;;;122.35;;
71383;SDS011;67558;52.166;5.004;2023-11-19T08:59:58;127.82;;;122.63;;
71383;SDS011;67558;52.166;5.004;2023-11-19T09:02:23;88.90;;;84.65;;
71383;SDS011;67558;52.166;5.004;2023-11-19T09:04:48;131.90;;;127.00;;
71383;SDS011;67558;52.166;5.004;2023-11-19T09:07:14;136.57;;;131.43;;
71383;SDS011;67558;52.166;5.004;2023-11-19T09:09:39;139.25;;;134.20;;
71383;SDS011;67558;52.166;5.004;2023-11-19T09:12:05;130.25;;;125.43;;
71383;SDS011;67558;52.166;5.004;2023-11-19T09:14:31;130.23;;;125.85;;
71383;SDS011;67558;52.166;5.004;2023-11-19T09:16:56;140.07;;;133.93;;
71383;SDS011;67558;52.166;5.004;2023-11-19T09:19:23;145.85;;;140.45;;
71383;SDS011;67558;52.166;5.004;2023-11-19T09:21:48;146.02;;;140.77;;
71383;SDS011;67558;52.166;5.004;2023-11-19T09:24:14;128.43;;;123.47;;
71383;SDS011;67558;52.166;5.004;2023-11-19T09:26:39;130.98;;;126.22;;
71383;SDS011;67558;52.166;5.004;2023-11-19T09:29:06;120.85;;;115.95;;
71383;SDS011;67558;52.166;5.004;2023-11-19T09:31:32;76.93;;;73.57;;
71383;SDS011;67558;52.166;5.004;2023-11-19T09:33:58;119.43;;;114.78;;
71383;SDS011;67558;52.166;5.004;2023-11-19T09:36:23;118.28;;;113.95;;
71383;SDS011;67558;52.166;5.004;2023-11-19T09:38:48;109.35;;;104.65;;
71383;SDS011;67558;52.166;5.004;2023-11-19T09:41:13;121.53;;;116.68;;
71383;SDS011;67558;52.166;5.004;2023-11-19T09:43:40;125.28;;;120.20;;
71383;SDS011;67558;52.166;5.004;2023-11-19T09:46:07;121.78;;;117.07;;
71383;SDS011;67558;52.166;5.004;2023-11-19T09:48:36;117.72;;;112.93;;
71383;SDS011;67558;52.166;5.004;2023-11-19T09:51:04;121.63;;;116.82;;
71383;SDS011;67558;52.166;5.004;2023-11-19T09:53:30;125.30;;;121.15;;
71383;SDS011;67558;52.166;5.004;2023-11-19T09:55:56;128.00;;;123.47;;
71383;SDS011;67558;52.166;5.004;2023-11-19T09:58:24;129.32;;;124.78;;
71383;SDS011;67558;52.166;5.004;2023-11-19T10:00:49;147.10;;;141.77;;
71383;SDS011;67558;52.166;5.004;2023-11-19T10:03:16;127.80;;;123.00;;
71383;SDS011;67558;52.166;5.004;2023-11-19T10:05:42;141.88;;;137.50;;
71383;SDS011;67558;52.166;5.004;2023-11-19T10:08:08;97.10;;;92.97;;
71383;SDS011;67558;52.166;5.004;2023-11-19T10:10:34;129.95;;;125.88;;
71383;SDS011;67558;52.166;5.004;2023-11-19T10:13:00;138.55;;;133.35;;
71383;SDS011;67558;52.166;5.004;2023-11-19T10:15:26;152.75;;;147.15;;
71383;SDS011;67558;52.166;5.004;2023-11-19T10:17:52;145.05;;;139.40;;
71383;SDS011;67558;52.166;5.004;2023-11-19T10:20:20;132.35;;;127.45;;
71383;SDS011;67558;52.166;5.004;2023-11-19T10:22:45;139.02;;;133.98;;
71383;SDS011;67558;52.166;5.004;2023-11-19T10:27:48;153.07;;;147.93;;
71383;SDS011;67558;52.166;5.004;2023-11-19T10:30:19;162.43;;;156.90;;
71383;SDS011;67558;52.166;5.004;2023-11-19T10:32:50;170.45;;;165.63;;
71383;SDS011;67558;52.166;5.004;2023-11-19T10:35:27;154.27;;;149.30;;
71383;SDS011;67558;52.166;5.004;2023-11-19T10:37:52;149.82;;;145.20;;
71383;SDS011;67558;52.166;5.004;2023-11-19T10:40:18;144.82;;;140.35;;
71383;SDS011;67558;52.166;5.004;2023-11-19T10:42:43;102.13;;;98.28;;
71383;SDS011;67558;52.166;5.004;2023-11-19T10:45:21;158.07;;;153.48;;
71383;SDS011;67558;52.166;5.004;2023-11-19T10:47:48;114.20;;;110.22;;
71383;SDS011;67558;52.166;5.004;2023-11-19T10:50:16;153.70;;;148.88;;
71383;SDS011;67558;52.166;5.004;2023-11-19T10:52:41;170.55;;;164.68;;
71383;SDS011;67558;52.166;5.004;2023-11-19T10:55:09;168.73;;;163.77;;
71383;SDS011;67558;52.166;5.004;2023-11-19T10:57:39;169.50;;;164.30;;
71383;SDS011;67558;52.166;5.004;2023-11-19T11:00:11;144.80;;;140.65;;
71383;SDS011;67558;52.166;5.004;2023-11-19T11:02:42;161.32;;;156.95;;
71383;SDS011;67558;52.166;5.004;2023-11-19T11:05:14;163.45;;;158.30;;
71383;SDS011;67558;52.166;5.004;2023-11-19T11:07:41;156.60;;;151.60;;
71383;SDS011;67558;52.166;5.004;2023-11-19T11:10:09;172.10;;;166.65;;
71383;SDS011;67558;52.166;5.004;2023-11-19T11:12:37;180.48;;;174.80;;
71383;SDS011;67558;52.166;5.004;2023-11-19T11:15:06;159.40;;;154.32;;
71383;SDS011;67558;52.166;5.004;2023-11-19T11:17:33;168.65;;;163.10;;
71383;SDS011;67558;52.166;5.004;2023-11-19T11:19:59;182.57;;;177.27;;
71383;SDS011;67558;52.166;5.004;2023-11-19T11:22:24;181.30;;;176.35;;
71383;SDS011;67558;52.166;5.004;2023-11-19T11:38:39;167.10;;;161.93;;
71383;SDS011;67558;52.166;5.004;2023-11-19T11:41:22;185.43;;;179.85;;
71383;SDS011;67558;52.166;5.004;2023-11-19T11:43:51;178.55;;;173.27;;
71383;SDS011;67558;52.166;5.004;2023-11-19T11:49:07;115.55;;;110.80;;
71383;SDS011;67558;52.166;5.004;2023-11-19T11:57:20;162.10;;;156.77;;
71383;SDS011;67558;52.166;5.004;2023-11-19T11:59:49;171.23;;;165.23;;
71383;SDS011;67558;52.166;5.004;2023-11-19T12:02:16;170.35;;;164.88;;
71383;SDS011;67558;52.166;5.004;2023-11-19T12:04:47;151.73;;;146.75;;
71383;SDS011;67558;52.166;5.004;2023-11-19T12:07:31;146.98;;;141.88;;
71383;SDS011;67558;52.166;5.004;2023-11-19T12:10:08;159.32;;;154.18;;
71383;SDS011;67558;52.166;5.004;2023-11-19T12:12:36;92.68;;;89.85;;
71383;SDS011;67558;52.166;5.004;2023-11-19T12:15:05;155.23;;;149.93;;
71383;SDS011;67558;52.166;5.004;2023-11-19T12:17:41;134.27;;;129.43;;
71383;SDS011;67558;52.166;5.004;2023-11-19T12:20:14;151.85;;;147.10;;
71383;SDS011;67558;52.166;5.004;2023-11-19T12:22:41;155.23;;;150.43;;
71383;SDS011;67558;52.166;5.004;2023-11-19T12:25:08;145.07;;;140.90;;
71383;SDS011;67558;52.166;5.004;2023-11-19T12:27:35;154.65;;;149.98;;
71383;SDS011;67558;52.166;5.004;2023-11-19T12:30:02;147.63;;;142.95;;
71383;SDS011;67558;52.166;5.004;2023-11-19T12:32:41;155.18;;;150.60;;
71383;SDS011;67558;52.166;5.004;2023-11-19T12:35:08;162.23;;;158.07;;
71383;SDS011;67558;52.166;5.004;2023-11-19T12:37:42;152.88;;;147.95;;
71383;SDS011;67558;52.166;5.004;2023-11-19T12:40:16;157.35;;;152.50;;
71383;SDS011;67558;52.166;5.004;2023-11-19T12:42:43;161.55;;;157.13;;
71383;SDS011;67558;52.166;5.004;2023-11-19T12:45:09;112.65;;;109.40;;
71383;SDS011;67558;52.166;5.004;2023-11-19T12:47:40;147.00;;;142.82;;
71383;SDS011;67558;52.166;5.004;2023-11-19T12:50:06;142.63;;;138.07;;
71383;SDS011;67558;52.166;5.004;2023-11-19T12:52:33;142.05;;;138.10;;
71383;SDS011;67558;52.166;5.004;2023-11-19T12:55:03;142.52;;;138.65;;
71383;SDS011;67558;52.166;5.004;2023-11-19T12:57:48;132.43;;;129.20;;
71383;SDS011;67558;52.166;5.004;2023-11-19T13:00:21;132.05;;;128.07;;
71383;SDS011;67558;52.166;5.004;2023-11-19T13:02:48;133.40;;;129.18;;
71383;SDS011;67558;52.166;5.004;2023-11-19T13:05:24;140.73;;;135.98;;
71383;SDS011;67558;52.166;5.004;2023-11-19T13:07:57;97.10;;;94.05;;
71383;SDS011;67558;52.166;5.004;2023-11-19T13:10:29;135.48;;;131.73;;
71383;SDS011;67558;52.166;5.004;2023-11-19T13:13:07;134.73;;;130.68;;
71383;SDS011;67558;52.166;5.004;2023-11-19T13:15:34;141.60;;;137.02;;
71383;SDS011;67558;52.166;5.004;2023-11-19T13:18:00;142.10;;;137.93;;
71383;SDS011;67558;52.166;5.004;2023-11-19T13:20:27;140.88;;;135.95;;
71383;SDS011;67558;52.166;5.004;2023-11-19T13:22:56;141.63;;;138.10;;
71383;SDS011;67558;52.166;5.004;2023-11-19T13:25:25;138.73;;;135.02;;
71383;SDS011;67558;52.166;5.004;2023-11-19T13:27:51;133.88;;;129.23;;
71383;SDS011;67558;52.166;5.004;2023-11-19T13:30:17;141.70;;;136.80;;
71383;SDS011;67558;52.166;5.004;2023-11-19T13:32:43;141.25;;;136.57;;
71383;SDS011;67558;52.166;5.004;2023-11-19T13:35:10;140.70;;;136.63;;
71383;SDS011;67558;52.166;5.004;2023-11-19T13:37:37;139.73;;;135.55;;
71383;SDS011;67558;52.166;5.004;2023-11-19T13:40:03;142.65;;;137.80;;
71383;SDS011;67558;52.166;5.004;2023-11-19T13:42:28;141.57;;;136.95;;
71383;SDS011;67558;52.166;5.004;2023-11-19T13:44:54;149.48;;;144.98;;
71383;SDS011;67558;52.166;5.004;2023-11-19T13:47:20;143.65;;;139.13;;
71383;SDS011;67558;52.166;5.004;2023-11-19T13:49:45;155.35;;;151.13;;
71383;SDS011;67558;52.166;5.004;2023-11-19T13:52:11;145.82;;;141.35;;
71383;SDS011;67558;52.166;5.004;2023-11-19T13:54:36;154.32;;;149.38;;
71383;SDS011;67558;52.166;5.004;2023-11-19T13:57:02;160.38;;;154.63;;
71383;SDS011;67558;52.166;5.004;2023-11-19T13:59:29;147.20;;;141.85;;
71383;SDS011;67558;52.166;5.004;2023-11-19T14:01:56;163.48;;;158.35;;
71383;SDS011;67558;52.166;5.004;2023-11-19T14:04:21;156.85;;;152.32;;
71383;SDS011;67558;52.166;5.004;2023-11-19T14:06:47;162.90;;;158.65;;
71383;SDS011;67558;52.166;5.004;2023-11-19T14:09:12;127.05;;;122.80;;
71383;SDS011;67558;52.166;5.004;2023-11-19T14:11:38;166.25;;;161.63;;
71383;SDS011;67558;52.166;5.004;2023-11-19T14:14:03;169.13;;;164.43;;
71383;SDS011;67558;52.166;5.004;2023-11-19T14:16:28;155.10;;;149.98;;
71383;SDS011;67558;52.166;5.004;2023-11-19T14:18:54;152.65;;;148.05;;
71383;SDS011;67558;52.166;5.004;2023-11-19T14:21:20;160.00;;;154.93;;
71383;SDS011;67558;52.166;5.004;2023-11-19T14:23:45;145.00;;;140.70;;